Time;durP1;ratioP1;P1;durP2;ratioP2;P2;SDS_P1;SDS_P2;PMS_P1;PMS_P2;Temp;Humidity;BMP_temperature;BMP_pressure;BME280_temperature;BME280_humidity;BME280_pressure;Samples;Min_cycle;Max_cycle;Signal;HPM_P1;HPM_P2
2022/10/10 00:01:56;;;;;;;3.17;2.60;;;10.20;78.30;;;;;;5087072;28;20434;-69
2022/10/10 00:04:22;;;;;;;3.28;2.97;;;10.20;77.70;;;;;;5087450;28;20410;-69
2022/10/10 00:06:49;;;;;;;3.30;3.00;;;10.20;77.20;;;;;;5088239;28;20417;-70
2022/10/10 00:09:16;;;;;;;3.70;2.80;;;10.20;77.00;;;;;;5088533;28;20414;-70
2022/10/10 00:11:43;;;;;;;3.72;3.10;;;10.20;76.40;;;;;;5077668;28;20426;-69
2022/10/10 00:14:09;;;;;;;3.50;2.92;;;10.10;76.60;;;;;;5087987;28;20426;-69
2022/10/10 00:16:37;;;;;;;4.68;3.30;;;10.10;76.70;;;;;;5086417;28;20911;-71
2022/10/10 00:19:04;;;;;;;3.57;2.97;;;10.10;76.70;;;;;;5087750;28;20413;-70
2022/10/10 00:21:31;;;;;;;2.85;2.55;;;10.10;76.80;;;;;;5087590;28;20413;-70
2022/10/10 00:23:59;;;;;;;4.13;3.00;;;10.00;76.90;;;;;;5086824;28;20780;-70
2022/10/10 00:26:26;;;;;;;3.15;2.85;;;10.00;77.00;;;;;;5087083;28;21002;-70
2022/10/10 00:28:53;;;;;;;3.80;2.90;;;10.00;77.20;;;;;;5088322;28;20413;-70
2022/10/10 00:31:20;;;;;;;3.63;2.83;;;10.00;77.50;;;;;;5085957;28;20433;-70
2022/10/10 00:33:48;;;;;;;4.38;3.10;;;9.90;77.70;;;;;;5086988;28;20430;-70
2022/10/10 00:36:15;;;;;;;3.85;2.85;;;10.00;77.70;;;;;;5087726;28;20492;-70
2022/10/10 00:38:42;;;;;;;3.20;2.90;;;9.90;77.90;;;;;;5087639;28;20509;-70
2022/10/10 00:41:09;;;;;;;3.75;3.10;;;9.90;77.90;;;;;;5086701;28;20811;-70
2022/10/10 00:43:36;;;;;;;3.90;3.00;;;9.90;78.30;;;;;;5086051;28;20882;-70
2022/10/10 00:46:03;;;;;;;3.33;3.03;;;9.90;77.90;;;;;;5086971;28;20421;-71
2022/10/10 00:48:34;;;;;;;3.40;3.00;;;9.90;78.20;;;;;;5087105;28;20418;-70
2022/10/10 00:51:05;;;;;;;3.40;2.90;;;9.90;78.70;;;;;;5087361;28;20479;-70
2022/10/10 00:53:36;;;;;;;3.25;2.95;;;9.90;78.60;;;;;;5086583;28;20425;-69
2022/10/10 00:56:03;;;;;;;3.70;3.35;;;9.90;78.70;;;;;;5086909;28;20413;-68
2022/10/10 00:58:31;;;;;;;3.05;2.75;;;9.80;78.50;;;;;;5086372;28;20429;-69
2022/10/10 01:00:58;;;;;;;2.90;2.70;;;9.80;78.50;;;;;;5087112;28;20414;-70
2022/10/10 01:03:25;;;;;;;3.42;2.65;;;9.90;78.40;;;;;;5086421;28;20411;-70
2022/10/10 01:05:52;;;;;;;3.15;2.80;;;9.90;78.50;;;;;;5087143;28;20413;-70
2022/10/10 01:08:21;;;;;;;3.00;2.70;;;9.90;78.40;;;;;;5081210;28;20427;-70
2022/10/10 01:11:03;;;;;;;3.47;3.03;;;9.90;78.70;;;;;;5073904;28;20438;-70
2022/10/10 01:13:36;;;;;;;4.00;3.00;;;9.80;78.50;;;;;;5078996;28;20431;-70
2022/10/10 01:16:10;;;;;;;3.88;2.70;;;9.80;78.80;;;;;;5085928;28;20911;-70
2022/10/10 01:18:45;;;;;;;4.18;2.85;;;9.80;78.90;;;;;;5086691;28;20492;-70
2022/10/10 01:21:24;;;;;;;3.75;2.88;;;9.80;79.00;;;;;;5087313;28;20417;-70
2022/10/10 01:24:35;;;;;;;3.15;2.92;;;9.80;79.40;;;;;;5076942;28;21024;-70
2022/10/10 01:27:16;;;;;;;3.30;2.80;;;9.80;79.50;;;;;;5073261;28;20424;-69
2022/10/10 01:29:49;;;;;;;4.47;2.83;;;9.80;79.40;;;;;;5087018;28;20414;-69
2022/10/10 01:32:21;;;;;;;3.50;3.00;;;9.80;79.30;;;;;;5076610;28;20417;-69
2022/10/10 01:34:56;;;;;;;3.25;2.95;;;9.80;79.40;;;;;;5090026;28;20456;-69
2022/10/10 01:37:28;;;;;;;3.63;2.60;;;9.70;79.70;;;;;;5090782;28;20787;-68
2022/10/10 01:39:59;;;;;;;3.30;2.90;;;9.70;79.50;;;;;;5088004;28;20433;-69
2022/10/10 01:42:31;;;;;;;3.20;2.53;;;9.70;79.60;;;;;;5092026;28;20438;-70
2022/10/10 01:44:59;;;;;;;2.83;2.55;;;9.70;79.80;;;;;;5088693;28;20406;-68
2022/10/10 01:47:26;;;;;;;3.50;2.60;;;9.60;80.00;;;;;;5090429;28;20414;-69
2022/10/10 01:49:55;;;;;;;3.30;2.50;;;9.60;79.80;;;;;;5089930;28;20426;-70
2022/10/10 01:52:40;;;;;;;3.30;2.50;;;9.60;79.70;;;;;;5090060;28;20418;-71
2022/10/10 01:55:21;;;;;;;3.42;2.80;;;9.60;80.00;;;;;;5090159;28;20429;-71
2022/10/10 01:57:59;;;;;;;3.30;2.67;;;9.60;80.10;;;;;;5088676;28;20430;-70
2022/10/10 02:00:27;;;;;;;3.80;3.50;;;9.60;80.20;;;;;;5090626;28;20443;-71
2022/10/10 02:02:58;;;;;;;3.30;3.00;;;9.60;80.30;;;;;;5089507;28;20507;-69
2022/10/10 02:05:30;;;;;;;2.80;2.50;;;9.60;80.10;;;;;;5090382;28;20414;-70
2022/10/10 02:08:02;;;;;;;2.70;2.50;;;9.60;80.20;;;;;;5090485;28;20410;-69
2022/10/10 02:10:32;;;;;;;3.95;3.05;;;9.60;80.50;;;;;;5089731;28;20434;-69
2022/10/10 02:13:02;;;;;;;3.47;2.60;;;9.60;80.30;;;;;;5088752;28;20435;-70
2022/10/10 02:15:37;;;;;;;3.50;2.70;;;9.60;80.30;;;;;;5089266;28;20418;-69
2022/10/10 02:18:07;;;;;;;4.63;3.40;;;9.50;80.40;;;;;;5089847;28;20418;-69
2022/10/10 02:20:34;;;;;;;2.97;2.67;;;9.50;80.50;;;;;;5090085;28;20432;-69
2022/10/10 02:23:01;;;;;;;3.95;3.00;;;9.50;80.80;;;;;;5088956;28;20442;-70
2022/10/10 02:25:31;;;;;;;2.90;2.60;;;9.50;81.10;;;;;;5095270;28;20448;-69
2022/10/10 02:28:09;;;;;;;3.30;3.00;;;9.50;81.20;;;;;;5094621;28;20413;-69
2022/10/10 02:30:42;;;;;;;3.60;2.90;;;9.50;80.90;;;;;;5090544;28;20943;-68
2022/10/10 02:33:09;;;;;;;3.97;2.83;;;9.50;81.00;;;;;;5090395;28;20471;-68
2022/10/10 02:35:40;;;;;;;3.00;2.70;;;9.50;81.20;;;;;;5090300;28;20429;-68
2022/10/10 02:38:09;;;;;;;3.10;2.80;;;9.50;81.50;;;;;;5089756;28;20422;-69
2022/10/10 02:40:36;;;;;;;2.95;2.70;;;9.40;81.20;;;;;;5087439;28;20420;-69
2022/10/10 02:43:07;;;;;;;3.28;2.70;;;9.40;81.20;;;;;;5090466;28;20432;-68
2022/10/10 02:45:34;;;;;;;2.88;2.55;;;9.40;81.10;;;;;;5098005;28;20410;-69
2022/10/10 02:48:02;;;;;;;2.78;2.58;;;9.40;81.10;;;;;;5095547;28;20437;-69
2022/10/10 02:50:30;;;;;;;3.10;2.80;;;9.40;81.20;;;;;;5102051;28;20406;-69
2022/10/10 02:52:57;;;;;;;2.50;2.30;;;9.40;82.30;;;;;;5096511;28;20422;-69
2022/10/10 02:55:24;;;;;;;3.28;2.65;;;9.40;81.60;;;;;;5092535;28;20425;-69
2022/10/10 02:57:51;;;;;;;3.35;2.90;;;9.40;82.00;;;;;;5090297;28;20421;-69
2022/10/10 03:00:19;;;;;;;4.40;3.20;;;9.40;82.00;;;;;;5092086;28;20837;-71
2022/10/10 03:02:46;;;;;;;3.08;2.78;;;9.40;82.40;;;;;;5076371;28;20414;-70
2022/10/10 03:05:16;;;;;;;3.20;3.00;;;9.40;82.20;;;;;;5089647;28;20844;-70
2022/10/10 03:07:43;;;;;;;3.60;2.97;;;9.30;82.10;;;;;;5089486;28;20436;-70
2022/10/10 03:10:10;;;;;;;3.60;2.92;;;9.30;82.50;;;;;;5087470;28;20962;-70
2022/10/10 03:12:37;;;;;;;3.30;2.40;;;9.30;82.30;;;;;;5086659;28;20442;-70
2022/10/10 03:15:05;;;;;;;3.38;2.75;;;9.30;82.80;;;;;;5088697;28;21083;-70
2022/10/10 03:17:31;;;;;;;3.45;3.10;;;9.30;82.70;;;;;;5089147;28;20418;-70
2022/10/10 03:19:58;;;;;;;3.10;2.80;;;9.30;82.80;;;;;;5088996;28;20425;-70
2022/10/10 03:22:26;;;;;;;3.78;2.90;;;9.30;82.80;;;;;;5088763;28;20471;-69
2022/10/10 03:24:53;;;;;;;4.05;3.10;;;9.30;83.10;;;;;;5086923;28;20439;-70
2022/10/10 03:27:20;;;;;;;3.28;2.97;;;9.20;83.20;;;;;;5086220;28;20433;-69
2022/10/10 03:29:46;;;;;;;2.92;2.65;;;9.20;83.00;;;;;;5085679;28;20428;-69
2022/10/10 03:32:13;;;;;;;3.58;2.72;;;9.30;82.90;;;;;;5088642;28;20416;-70
2022/10/10 03:34:40;;;;;;;3.80;3.40;;;9.30;83.40;;;;;;5088607;28;20433;-70
2022/10/10 03:37:07;;;;;;;3.00;2.80;;;9.30;83.80;;;;;;5088471;28;20414;-70
2022/10/10 03:39:35;;;;;;;3.10;2.60;;;9.30;82.80;;;;;;5087592;28;20422;-70
2022/10/10 03:42:02;;;;;;;3.90;3.17;;;9.30;83.00;;;;;;5086902;28;20434;-70
2022/10/10 03:44:28;;;;;;;3.33;3.00;;;9.30;83.20;;;;;;5087581;28;20414;-70
2022/10/10 03:46:55;;;;;;;3.50;3.20;;;9.30;83.20;;;;;;5088221;28;21069;-70
2022/10/10 03:49:22;;;;;;;4.03;3.00;;;9.30;83.50;;;;;;5087882;28;20418;-70
2022/10/10 03:51:49;;;;;;;3.40;2.90;;;9.30;83.50;;;;;;5088185;28;20418;-70
2022/10/10 03:54:15;;;;;;;2.85;2.65;;;9.30;83.50;;;;;;5087525;28;20433;-70
2022/10/10 03:56:43;;;;;;;4.95;3.15;;;9.30;83.40;;;;;;5086685;28;20425;-70
2022/10/10 03:59:10;;;;;;;3.20;2.90;;;9.20;83.30;;;;;;5085544;28;20431;-70
2022/10/10 04:01:37;;;;;;;4.50;3.30;;;9.20;83.50;;;;;;5084387;28;20438;-70
2022/10/10 04:04:04;;;;;;;3.80;3.10;;;9.20;83.70;;;;;;5085611;28;20414;-70
2022/10/10 04:06:31;;;;;;;4.60;3.92;;;9.20;83.60;;;;;;5086299;28;20435;-70
2022/10/10 04:08:58;;;;;;;4.20;3.50;;;9.30;83.60;;;;;;5099344;28;20421;-70
2022/10/10 04:11:25;;;;;;;4.30;3.50;;;9.20;83.60;;;;;;5087259;28;20430;-70
2022/10/10 04:13:53;;;;;;;5.43;3.90;;;9.20;83.70;;;;;;5086841;28;20448;-70
2022/10/10 04:16:20;;;;;;;4.82;3.50;;;9.20;83.60;;;;;;5087138;28;20430;-70
2022/10/10 04:18:47;;;;;;;4.17;3.50;;;9.20;83.80;;;;;;5086502;28;20923;-70
2022/10/10 04:21:13;;;;;;;5.30;3.60;;;9.20;83.80;;;;;;5085339;28;20901;-70
2022/10/10 04:23:40;;;;;;;4.55;3.97;;;9.20;84.00;;;;;;5079417;28;20421;-70
2022/10/10 04:26:07;;;;;;;4.20;3.80;;;9.20;84.20;;;;;;5086731;28;20448;-70
2022/10/10 04:28:34;;;;;;;3.90;3.60;;;9.20;84.50;;;;;;5080813;28;20434;-69
2022/10/10 04:31:02;;;;;;;5.30;4.00;;;9.20;84.50;;;;;;5087020;28;20803;-70
2022/10/10 04:33:29;;;;;;;5.65;4.40;;;9.20;84.60;;;;;;5074115;28;20421;-69
2022/10/10 04:35:55;;;;;;;5.60;3.85;;;9.20;84.60;;;;;;5087863;28;20441;-69
2022/10/10 04:38:22;;;;;;;6.18;4.10;;;9.20;84.70;;;;;;5087710;28;20417;-69
2022/10/10 04:40:49;;;;;;;5.30;4.32;;;9.20;84.90;;;;;;5085610;28;20436;-69
2022/10/10 04:43:16;;;;;;;6.47;4.38;;;9.10;85.00;;;;;;5085709;28;20436;-70
2022/10/10 04:45:43;;;;;;;4.47;4.05;;;9.10;85.40;;;;;;5087535;28;20412;-70
2022/10/10 04:48:11;;;;;;;7.00;4.00;;;9.10;85.40;;;;;;5087512;28;20414;-70
2022/10/10 04:50:39;;;;;;;4.40;4.00;;;9.20;85.70;;;;;;5081787;28;20437;-70
2022/10/10 04:53:06;;;;;;;4.60;4.20;;;9.20;85.80;;;;;;5087091;28;20421;-70
2022/10/10 04:55:33;;;;;;;5.77;4.13;;;9.10;86.00;;;;;;5086088;28;20457;-71
2022/10/10 04:58:00;;;;;;;5.78;4.20;;;9.10;86.00;;;;;;5087144;28;20958;-70
2022/10/10 05:00:26;;;;;;;6.18;4.20;;;9.10;86.20;;;;;;5099931;28;20440;-70
2022/10/10 05:02:53;;;;;;;4.38;3.97;;;9.10;86.50;;;;;;5095433;28;20765;-70
2022/10/10 05:05:21;;;;;;;5.82;4.10;;;9.10;86.40;;;;;;5092798;28;20517;-70
2022/10/10 05:07:48;;;;;;;5.15;3.58;;;9.10;86.70;;;;;;5083360;28;20411;-70
2022/10/10 05:10:15;;;;;;;4.90;4.10;;;9.10;86.70;;;;;;5085007;28;20458;-70
2022/10/10 05:12:42;;;;;;;6.82;4.30;;;9.10;86.60;;;;;;5088763;28;20436;-70
2022/10/10 05:15:09;;;;;;;6.63;3.97;;;9.00;87.00;;;;;;5090502;28;20426;-70
2022/10/10 05:17:36;;;;;;;4.25;3.85;;;9.10;87.30;;;;;;5126895;22;20455;-69
2022/10/10 05:20:02;;;;;;;4.90;4.20;;;9.10;87.10;;;;;;5111886;27;20453;-69
2022/10/10 05:22:31;;;;;;;5.10;4.30;;;9.10;87.00;;;;;;5105416;28;20413;-69
2022/10/10 05:24:58;;;;;;;6.70;4.80;;;9.10;87.10;;;;;;5107522;27;20434;-69
2022/10/10 05:27:25;;;;;;;6.47;4.20;;;9.10;87.20;;;;;;5115129;27;20416;-69
2022/10/10 05:29:52;;;;;;;6.70;4.22;;;9.10;87.20;;;;;;5115532;27;20867;-69
2022/10/10 05:32:19;;;;;;;7.28;3.90;;;9.10;87.50;;;;;;5121587;27;20491;-68
2022/10/10 05:34:46;;;;;;;5.40;3.97;;;9.10;87.50;;;;;;5122317;27;20523;-69
2022/10/10 05:37:13;;;;;;;7.57;4.50;;;9.10;87.40;;;;;;5114238;27;20860;-68
2022/10/10 05:39:41;;;;;;;5.40;4.10;;;9.10;87.60;;;;;;5121362;27;20445;-69
2022/10/10 05:42:09;;;;;;;6.07;4.23;;;9.10;87.60;;;;;;5112922;27;20515;-68
2022/10/10 05:44:36;;;;;;;5.93;4.15;;;9.10;87.60;;;;;;5122906;27;20777;-68
2022/10/10 05:47:03;;;;;;;6.93;4.35;;;9.10;87.80;;;;;;5134993;27;20450;-68
2022/10/10 05:49:30;;;;;;;5.10;4.20;;;9.10;87.80;;;;;;5133507;27;20494;-69
2022/10/10 05:51:57;;;;;;;5.07;4.35;;;9.10;87.60;;;;;;5120954;27;20831;-69
2022/10/10 05:54:23;;;;;;;5.57;4.07;;;9.10;87.80;;;;;;5126006;27;20422;-69
2022/10/10 05:56:51;;;;;;;7.50;4.60;;;9.10;87.80;;;;;;5109847;27;20426;-69
2022/10/10 05:59:18;;;;;;;4.80;4.30;;;9.10;88.00;;;;;;5124801;27;20414;-68
2022/10/10 06:01:45;;;;;;;6.07;4.10;;;9.10;88.00;;;;;;5123481;27;20495;-68
2022/10/10 06:04:12;;;;;;;6.30;4.10;;;9.10;88.10;;;;;;5120440;27;21090;-69
2022/10/10 06:06:39;;;;;;;5.80;4.22;;;9.20;88.00;;;;;;5124116;27;20436;-68
2022/10/10 06:09:06;;;;;;;7.00;4.68;;;9.20;87.80;;;;;;5118027;27;20760;-69
2022/10/10 06:11:33;;;;;;;6.68;4.30;;;9.20;87.60;;;;;;5114283;27;20424;-69
2022/10/10 06:14:01;;;;;;;6.70;5.10;;;9.30;87.80;;;;;;5124768;27;20511;-68
2022/10/10 06:16:28;;;;;;;4.78;4.30;;;9.30;87.50;;;;;;5111605;27;20575;-69
2022/10/10 06:18:56;;;;;;;5.43;4.25;;;9.30;87.70;;;;;;5118215;27;20512;-69
2022/10/10 06:21:24;;;;;;;5.05;4.55;;;9.30;87.30;;;;;;5118499;27;20426;-68
2022/10/10 06:23:51;;;;;;;7.18;4.60;;;9.30;88.50;;;;;;5111768;27;20934;-69
2022/10/10 06:26:18;;;;;;;7.75;5.10;;;9.30;87.70;;;;;;5119100;27;20733;-69
2022/10/10 06:28:45;;;;;;;7.82;4.70;;;9.30;87.50;;;;;;5117794;27;20902;-69
2022/10/10 06:31:13;;;;;;;5.25;4.47;;;9.30;87.50;;;;;;5106009;27;20951;-69
2022/10/10 06:33:44;;;;;;;7.65;4.65;;;9.40;87.80;;;;;;5122379;27;20430;-69
2022/10/10 06:36:12;;;;;;;7.50;4.77;;;9.40;87.90;;;;;;5110470;27;20761;-69
2022/10/10 06:38:41;;;;;;;6.03;4.60;;;9.40;87.80;;;;;;5113643;27;20419;-69
2022/10/10 06:41:09;;;;;;;5.15;4.40;;;9.40;87.70;;;;;;5120308;27;20767;-69
2022/10/10 06:43:36;;;;;;;5.30;4.80;;;9.40;87.70;;;;;;5115617;27;20412;-68
2022/10/10 06:46:03;;;;;;;6.17;4.50;;;9.50;87.60;;;;;;5112788;27;20440;-70
2022/10/10 06:48:34;;;;;;;4.95;4.45;;;9.50;87.60;;;;;;5112948;27;20427;-68
2022/10/10 06:51:02;;;;;;;6.22;4.72;;;9.60;87.30;;;;;;5110174;27;20420;-69
2022/10/10 06:53:30;;;;;;;7.70;4.35;;;9.70;87.00;;;;;;5115689;27;20518;-69
2022/10/10 06:55:58;;;;;;;8.87;5.10;;;9.70;86.80;;;;;;5109266;27;20428;-68
2022/10/10 06:58:27;;;;;;;5.97;4.60;;;9.80;86.70;;;;;;5111929;27;20423;-69
2022/10/10 07:00:55;;;;;;;11.27;4.70;;;9.80;86.50;;;;;;5123805;27;20524;-69
2022/10/10 07:03:22;;;;;;;7.20;5.30;;;9.90;86.20;;;;;;5125873;27;20835;-69
2022/10/10 07:05:51;;;;;;;6.13;4.80;;;10.00;86.00;;;;;;5119599;27;20729;-69
2022/10/10 07:08:18;;;;;;;4.82;4.32;;;10.10;85.40;;;;;;5107185;27;20435;-68
2022/10/10 07:10:46;;;;;;;5.40;4.80;;;10.20;85.30;;;;;;5113785;27;20434;-69
2022/10/10 07:13:13;;;;;;;7.43;4.85;;;10.30;85.00;;;;;;5108775;27;20439;-68
2022/10/10 07:15:40;;;;;;;6.65;4.60;;;10.40;84.70;;;;;;5122774;27;20425;-69
2022/10/10 07:18:07;;;;;;;4.85;4.20;;;10.50;84.40;;;;;;5124716;27;20834;-69
2022/10/10 07:20:34;;;;;;;7.40;4.50;;;10.60;83.90;;;;;;5110988;27;20858;-69
2022/10/10 07:23:03;;;;;;;5.25;4.50;;;10.70;83.30;;;;;;5115583;27;20506;-69
2022/10/10 07:25:31;;;;;;;4.95;4.45;;;10.80;83.10;;;;;;5103975;27;20451;-67
2022/10/10 07:27:58;;;;;;;5.45;4.80;;;11.00;82.50;;;;;;5112016;27;20412;-69
2022/10/10 07:30:25;;;;;;;5.85;4.80;;;11.10;82.10;;;;;;5118962;27;20440;-70
2022/10/10 07:32:54;;;;;;;5.20;4.63;;;11.30;81.30;;;;;;5118103;27;20430;-70
2022/10/10 07:35:21;;;;;;;5.10;4.40;;;11.40;80.70;;;;;;5122081;27;20430;-69
2022/10/10 07:37:48;;;;;;;5.18;4.20;;;11.60;80.50;;;;;;5120263;27;21158;-69
2022/10/10 07:40:16;;;;;;;4.47;4.07;;;11.80;79.30;;;;;;5115875;27;20783;-68
2022/10/10 07:42:43;;;;;;;7.05;4.20;;;12.00;78.80;;;;;;5121865;27;20432;-69
2022/10/10 07:45:11;;;;;;;4.72;4.32;;;12.20;77.80;;;;;;5120808;27;20427;-69
2022/10/10 07:47:38;;;;;;;5.17;4.40;;;12.30;77.10;;;;;;5121984;27;20579;-68
2022/10/10 07:50:07;;;;;;;4.78;3.95;;;12.50;76.80;;;;;;5117428;27;20510;-68
2022/10/10 07:52:34;;;;;;;4.43;3.90;;;12.60;75.90;;;;;;5114388;27;20497;-68
2022/10/10 07:55:01;;;;;;;4.43;3.80;;;12.90;75.60;;;;;;5119789;27;20428;-69
2022/10/10 07:57:33;;;;;;;6.03;4.72;;;13.10;74.30;;;;;;5121244;27;20478;-69
2022/10/10 08:00:00;;;;;;;5.10;4.30;;;13.30;72.90;;;;;;5122241;27;20512;-69
2022/10/10 08:02:27;;;;;;;6.22;4.47;;;13.30;72.90;;;;;;5119163;27;20422;-69
2022/10/10 08:04:54;;;;;;;4.32;3.92;;;13.30;72.80;;;;;;5103438;27;20420;-69
2022/10/10 08:07:21;;;;;;;5.13;4.38;;;13.40;72.70;;;;;;5106434;27;20417;-69
2022/10/10 08:09:47;;;;;;;4.40;4.00;;;13.60;72.60;;;;;;5119908;27;20422;-69
2022/10/10 08:12:14;;;;;;;4.93;4.50;;;13.70;71.60;;;;;;5108781;27;20424;-69
2022/10/10 08:14:42;;;;;;;4.47;4.07;;;13.70;71.70;;;;;;5109458;27;20416;-69
2022/10/10 08:17:09;;;;;;;4.50;4.10;;;13.80;71.70;;;;;;5120022;27;20430;-69
2022/10/10 08:19:36;;;;;;;4.68;4.10;;;14.10;71.00;;;;;;5109698;27;20418;-69
2022/10/10 08:22:03;;;;;;;6.53;4.47;;;14.30;70.30;;;;;;5105697;27;20518;-69
2022/10/10 08:24:30;;;;;;;5.00;4.40;;;14.30;69.90;;;;;;5107244;27;20408;-69
2022/10/10 08:26:57;;;;;;;5.77;4.17;;;14.50;69.70;;;;;;5106487;27;20438;-69
2022/10/10 08:29:24;;;;;;;4.63;4.13;;;14.60;69.40;;;;;;5114598;27;20424;-70
2022/10/10 08:31:52;;;;;;;5.72;4.15;;;14.60;69.30;;;;;;5120421;27;20459;-68
2022/10/10 08:34:19;;;;;;;5.38;4.00;;;14.70;69.20;;;;;;5112182;27;20408;-68
2022/10/10 08:36:46;;;;;;;4.97;4.20;;;14.80;69.00;;;;;;5115780;27;20418;-69
2022/10/10 08:39:12;;;;;;;5.97;4.53;;;14.70;69.50;;;;;;5110697;27;20428;-69
2022/10/10 08:41:45;;;;;;;4.72;3.90;;;14.70;69.70;;;;;;5117495;28;20866;-69
2022/10/10 08:44:18;;;;;;;4.80;4.00;;;14.70;69.70;;;;;;5120198;27;20395;-69
2022/10/10 08:46:48;;;;;;;5.40;3.75;;;14.70;70.30;;;;;;5117015;27;20729;-68
2022/10/10 08:49:24;;;;;;;6.43;4.22;;;14.80;70.00;;;;;;5103033;28;20415;-69
2022/10/10 08:51:58;;;;;;;4.30;3.90;;;15.00;69.80;;;;;;5112369;28;21047;-69
2022/10/10 08:54:26;;;;;;;5.40;3.87;;;15.20;69.20;;;;;;5108403;28;20479;-69
2022/10/10 08:56:59;;;;;;;5.60;4.10;;;15.40;68.90;;;;;;5113845;28;20861;-68
2022/10/10 08:59:30;;;;;;;4.20;3.80;;;15.60;68.20;;;;;;5113418;28;20514;-70
2022/10/10 09:02:04;;;;;;;4.88;3.80;;;15.80;67.50;;;;;;5117876;27;20426;-71
2022/10/10 09:04:33;;;;;;;7.27;3.80;;;15.90;67.30;;;;;;5116304;28;20426;-70
2022/10/10 09:07:13;;;;;;;4.57;4.00;;;16.10;66.90;;;;;;5107468;27;20510;-71
2022/10/10 09:09:49;;;;;;;3.95;3.63;;;16.30;66.50;;;;;;5119930;28;20563;-70
2022/10/10 09:12:25;;;;;;;3.70;3.40;;;16.50;65.70;;;;;;5117850;27;20424;-70
2022/10/10 09:15:02;;;;;;;5.13;3.75;;;17.00;64.80;;;;;;5118632;28;20781;-71
2022/10/10 09:17:37;;;;;;;4.20;3.80;;;17.50;62.90;;;;;;5115466;27;20736;-70
2022/10/10 09:20:18;;;;;;;5.28;3.70;;;17.80;61.60;;;;;;5114974;28;20433;-70
2022/10/10 09:22:53;;;;;;;4.90;3.53;;;18.10;60.70;;;;;;5103856;27;20408;-70
2022/10/10 09:25:24;;;;;;;4.37;3.60;;;18.40;60.20;;;;;;5114414;28;20418;-70
2022/10/10 09:28:00;;;;;;;5.13;3.30;;;18.80;58.40;;;;;;5110169;28;20422;-71
2022/10/10 09:30:29;;;;;;;5.05;3.53;;;19.10;58.00;;;;;;5104524;28;20504;-69
2022/10/10 09:33:02;;;;;;;5.88;3.40;;;19.30;56.70;;;;;;5120541;28;20790;-70
2022/10/10 09:35:35;;;;;;;4.93;3.40;;;19.50;56.80;;;;;;5108048;27;20787;-70
2022/10/10 09:38:16;;;;;;;5.05;3.38;;;19.70;57.00;;;;;;5109535;28;20420;-70
2022/10/10 09:40:46;;;;;;;6.57;3.40;;;20.10;55.20;;;;;;5106305;28;20411;-70
2022/10/10 09:43:17;;;;;;;6.00;3.35;;;20.40;54.30;;;;;;5120683;28;20455;-70
2022/10/10 09:45:48;;;;;;;4.43;3.10;;;20.80;53.10;;;;;;5113949;28;21141;-71
2022/10/10 09:48:15;;;;;;;4.88;3.80;;;20.90;52.40;;;;;;5115211;28;20424;-71
2022/10/10 09:50:43;;;;;;;4.55;2.90;;;21.20;52.20;;;;;;5118926;28;20508;-70
2022/10/10 09:53:14;;;;;;;4.47;3.20;;;21.40;50.90;;;;;;5110919;27;20435;-70
2022/10/10 09:55:41;;;;;;;4.20;3.10;;;21.50;51.60;;;;;;5113645;27;20428;-70
2022/10/10 09:58:16;;;;;;;5.50;3.10;;;21.80;50.70;;;;;;5106704;27;20426;-70
2022/10/10 10:00:43;;;;;;;5.00;2.90;;;21.90;49.90;;;;;;5115626;27;20476;-70
2022/10/10 10:03:12;;;;;;;4.43;3.00;;;22.00;49.60;;;;;;5111546;27;20449;-70
2022/10/10 10:05:41;;;;;;;4.30;2.90;;;22.20;49.30;;;;;;5121625;27;20438;-71
2022/10/10 10:08:23;;;;;;;4.90;3.20;;;22.40;48.90;;;;;;5113353;27;20442;-70
2022/10/10 10:10:50;;;;;;;5.97;3.45;;;22.60;47.80;;;;;;5117300;27;20736;-71
2022/10/10 10:13:24;;;;;;;4.27;2.50;;;22.60;47.70;;;;;;5101523;28;20419;-70
2022/10/10 10:15:56;;;;;;;3.53;2.65;;;22.60;48.10;;;;;;5108008;27;20487;-70
2022/10/10 10:18:26;;;;;;;4.80;3.20;;;22.80;47.40;;;;;;5120241;27;20423;-69
2022/10/10 10:21:08;;;;;;;5.45;2.75;;;23.00;46.80;;;;;;5113044;27;20593;-70
2022/10/10 10:23:42;;;;;;;6.80;2.92;;;23.00;46.80;;;;;;5116677;27;20433;-69
2022/10/10 10:26:18;;;;;;;5.13;3.00;;;22.80;46.70;;;;;;5114091;27;20412;-70
2022/10/10 10:28:46;;;;;;;5.07;3.30;;;22.50;47.40;;;;;;5124068;27;20403;-70
2022/10/10 10:31:24;;;;;;;4.75;3.00;;;22.30;48.00;;;;;;5124365;27;20885;-70
2022/10/10 10:34:01;;;;;;;5.72;2.97;;;22.00;49.00;;;;;;5116233;27;20524;-70
2022/10/10 10:36:40;;;;;;;6.00;2.90;;;21.80;49.20;;;;;;5108857;27;20432;-69
2022/10/10 10:39:19;;;;;;;4.78;3.10;;;21.60;49.10;;;;;;5112705;27;20402;-70
2022/10/10 10:41:54;;;;;;;5.20;2.90;;;21.20;49.90;;;;;;5123813;27;20422;-71
2022/10/10 10:44:31;;;;;;;6.43;3.00;;;21.00;51.00;;;;;;5123210;27;20887;-70
2022/10/10 10:47:11;;;;;;;5.00;3.10;;;21.00;51.80;;;;;;5122938;27;20411;-70
2022/10/10 10:49:46;;;;;;;4.55;3.13;;;21.10;51.70;;;;;;5110482;27;20424;-72
2022/10/10 10:52:33;;;;;;;4.35;3.58;;;21.30;51.50;;;;;;5117981;27;20485;-63
2022/10/10 10:55:28;;;;;;;5.20;3.30;;;21.50;50.80;;;;;;5120416;27;20423;-63
2022/10/10 10:58:14;;;;;;;4.50;3.60;;;21.80;50.00;;;;;;5109978;27;20554;-63
2022/10/10 11:00:51;;;;;;;4.27;2.77;;;22.00;49.30;;;;;;5110289;27;20629;-64
2022/10/10 11:03:27;;;;;;;7.10;3.30;;;22.00;48.10;;;;;;5110031;27;20430;-63
2022/10/10 11:06:05;;;;;;;5.45;2.50;;;22.10;47.70;;;;;;5117426;27;20482;-64
2022/10/10 11:08:52;;;;;;;4.93;3.10;;;22.40;47.30;;;;;;5107837;27;20414;-63
2022/10/10 11:11:35;;;;;;;7.55;2.70;;;22.80;46.60;;;;;;5106863;27;20437;-63
2022/10/10 11:14:06;;;;;;;4.90;2.70;;;23.30;46.10;;;;;;5101278;27;20423;-63
2022/10/10 11:16:37;;;;;;;8.57;3.00;;;23.50;45.30;;;;;;5121202;27;20422;-64
2022/10/10 11:19:15;;;;;;;5.20;3.10;;;23.50;44.40;;;;;;5113706;27;20440;-63
2022/10/10 11:21:47;;;;;;;4.80;2.70;;;23.60;43.70;;;;;;5111078;27;20655;-63
2022/10/10 11:24:23;;;;;;;6.10;2.40;;;23.60;43.40;;;;;;5115352;27;20475;-63
2022/10/10 11:26:55;;;;;;;5.63;3.30;;;23.50;43.20;;;;;;5123879;22;20710;-65
2022/10/10 11:29:27;;;;;;;6.63;3.10;;;23.20;43.70;;;;;;5076386;28;20438;-67
2022/10/10 11:32:00;;;;;;;6.75;2.50;;;23.20;43.50;;;;;;5085969;28;20426;-63
2022/10/10 11:34:33;;;;;;;5.90;2.53;;;23.00;43.60;;;;;;5077515;28;20440;-65
2022/10/10 11:37:03;;;;;;;3.63;2.30;;;22.70;44.50;;;;;;5086996;28;20422;-63
2022/10/10 11:39:38;;;;;;;5.03;2.30;;;22.40;45.80;;;;;;5084099;28;20409;-66
2022/10/10 11:42:15;;;;;;;5.72;2.53;;;22.30;45.60;;;;;;5089163;28;20413;-65
2022/10/10 11:44:46;;;;;;;5.73;2.20;;;22.30;46.10;;;;;;5089674;28;20902;-65
2022/10/10 11:47:18;;;;;;;4.43;2.28;;;22.20;45.40;;;;;;5085132;28;20427;-64
2022/10/10 11:49:53;;;;;;;4.70;2.40;;;22.20;46.10;;;;;;5077306;28;20411;-62
2022/10/10 11:52:25;;;;;;;5.30;3.10;;;22.20;46.10;;;;;;5072527;28;20913;-63
2022/10/10 11:54:57;;;;;;;5.97;2.80;;;22.30;45.30;;;;;;5084079;28;20413;-67
2022/10/10 11:57:31;;;;;;;5.28;2.30;;;22.30;45.30;;;;;;5088769;28;21097;-67
2022/10/10 12:00:03;;;;;;;4.75;2.20;;;22.40;44.60;;;;;;5080453;28;20425;-66
2022/10/10 12:02:35;;;;;;;6.00;2.10;;;22.30;44.10;;;;;;5078735;28;20439;-66
2022/10/10 12:05:04;;;;;;;7.18;2.33;;;22.50;44.80;;;;;;5091346;28;20428;-65
2022/10/10 12:07:36;;;;;;;5.00;2.10;;;22.80;42.80;;;;;;5085945;28;20961;-64
2022/10/10 12:10:13;;;;;;;5.50;2.50;;;22.80;42.70;;;;;;5092987;28;20429;-64
2022/10/10 12:12:44;;;;;;;6.30;2.53;;;22.80;43.20;;;;;;5089662;28;20421;-66
2022/10/10 12:15:28;;;;;;;5.20;2.23;;;22.80;43.40;;;;;;5087890;28;20503;-64
2022/10/10 12:17:55;;;;;;;5.15;2.20;;;22.80;42.80;;;;;;5080500;28;20830;-65
2022/10/10 12:20:33;;;;;;;7.35;2.30;;;22.50;43.60;;;;;;5088418;28;20470;-64
2022/10/10 12:23:17;;;;;;;8.05;2.40;;;22.30;44.00;;;;;;5076520;28;20508;-64
2022/10/10 12:25:46;;;;;;;4.70;2.33;;;22.10;44.60;;;;;;5088708;28;20414;-64
2022/10/10 12:28:33;;;;;;;7.30;2.53;;;21.90;45.40;;;;;;5085054;28;20959;-65
2022/10/10 12:31:19;;;;;;;4.30;1.90;;;21.70;45.30;;;;;;5075313;28;20422;-63
2022/10/10 12:34:05;;;;;;;4.88;2.00;;;21.60;46.50;;;;;;5084904;28;20490;-63
2022/10/10 12:36:56;;;;;;;5.83;2.00;;;21.60;45.50;;;;;;5081102;28;20422;-65
2022/10/10 12:39:33;;;;;;;6.57;2.78;;;21.60;45.70;;;;;;5077445;28;20467;-67
2022/10/10 12:42:00;;;;;;;4.70;2.60;;;21.70;46.10;;;;;;5089878;28;20441;-66
2022/10/10 12:44:43;;;;;;;5.80;2.10;;;22.00;45.40;;;;;;5085242;28;20941;-64
2022/10/10 12:47:40;;;;;;;5.40;2.08;;;22.20;44.90;;;;;;5071197;28;20434;-65
2022/10/10 12:50:21;;;;;;;5.50;2.40;;;22.20;44.80;;;;;;5086259;28;20414;-65
2022/10/10 12:52:51;;;;;;;6.60;2.72;;;22.10;44.80;;;;;;5088354;28;20414;-63
2022/10/10 12:55:21;;;;;;;3.92;2.00;;;22.30;44.30;;;;;;5085858;28;20948;-64
2022/10/10 12:57:50;;;;;;;3.63;1.80;;;22.30;44.30;;;;;;5089991;28;20444;-65
2022/10/10 13:00:21;;;;;;;6.45;2.50;;;22.30;43.90;;;;;;5084472;28;20429;-66
2022/10/10 13:02:51;;;;;;;3.72;2.10;;;22.20;44.30;;;;;;5086381;28;20444;-65
2022/10/10 13:05:25;;;;;;;5.15;2.20;;;22.10;44.60;;;;;;5098622;28;20933;-64
2022/10/10 13:07:53;;;;;;;4.50;2.45;;;22.00;44.80;;;;;;5095043;28;20406;-66
2022/10/10 13:10:23;;;;;;;5.72;2.53;;;22.00;45.00;;;;;;5081122;28;20414;-64